Time;durP1;ratioP1;P1;durP2;ratioP2;P2;SDS_P1;SDS_P2;PMS_P1;PMS_P2;Temp;Humidity;BMP_temperature;BMP_pressure;BME280_temperature;BME280_humidity;BME280_pressure;Samples;Min_cycle;Max_cycle;Signal;HPM_P1;HPM_P2
2023/04/17 00:01:28;;;;;;;7.35;5.60;;;;;;;14.64;47.07;93452.03;4945816;28;20046;-92
2023/04/17 00:03:56;;;;;;;7.63;6.03;;;;;;;14.57;47.34;93449.75;4979300;28;20041;-91
2023/04/17 00:06:22;;;;;;;7.88;6.00;;;;;;;14.64;46.88;93451.31;5006155;28;20152;-92
2023/04/17 00:08:48;;;;;;;8.25;5.97;;;;;;;14.61;47.08;93444.84;5005768;28;20497;-92
2023/04/17 00:11:13;;;;;;;9.85;6.57;;;;;;;14.58;47.04;93443.09;4989746;28;20355;-91
2023/04/17 00:13:39;;;;;;;8.02;6.20;;;;;;;14.63;47.11;93452.53;5005633;28;20039;-91
2023/04/17 00:16:05;;;;;;;7.57;5.53;;;;;;;14.65;47.24;93445.38;4972960;28;20113;-91
2023/04/17 00:18:30;;;;;;;8.90;6.47;;;;;;;14.61;47.01;93444.09;4989044;28;20034;-91
2023/04/17 00:20:55;;;;;;;7.65;6.03;;;;;;;14.65;46.89;93441.91;4971869;28;20038;-92
2023/04/17 00:23:21;;;;;;;7.78;5.90;;;;;;;14.62;47.16;93435.47;4971110;28;20047;-92
2023/04/17 00:25:46;;;;;;;10.55;6.72;;;;;;;14.64;46.84;93440.41;4989844;28;20062;-92
2023/04/17 00:28:12;;;;;;;7.70;6.00;;;;;;;14.66;47.13;93443.41;4988637;28;20152;-91
2023/04/17 00:30:37;;;;;;;9.98;5.82;;;;;;;14.65;47.01;93442.66;4999412;28;20102;-91
2023/04/17 00:33:03;;;;;;;7.88;6.00;;;;;;;14.58;46.96;93436.91;4966608;28;20039;-92
2023/04/17 00:35:28;;;;;;;8.48;5.97;;;;;;;14.58;47.13;93436.91;4966611;28;20043;-92
2023/04/17 00:37:53;;;;;;;7.15;5.32;;;;;;;14.61;47.03;93435.94;4970157;28;20501;-91
2023/04/17 00:40:19;;;;;;;8.85;6.03;;;;;;;14.59;47.27;93425.53;4985194;28;20049;-93
2023/04/17 00:42:45;;;;;;;8.43;5.60;;;;;;;14.60;46.85;93434.44;4989363;28;20093;-92
2023/04/17 00:45:10;;;;;;;7.38;5.93;;;;;;;14.62;46.84;93437.44;4984565;28;20603;-92
2023/04/17 00:47:36;;;;;;;8.43;5.75;;;;;;;14.68;47.05;93433.53;4975710;28;20069;-91
2023/04/17 00:50:03;;;;;;;6.88;5.40;;;;;;;14.63;47.24;93428.78;4956199;28;20035;-91
2023/04/17 00:52:29;;;;;;;7.22;5.93;;;;;;;14.59;47.08;93430.25;4953683;28;20195;-92
2023/04/17 00:54:55;;;;;;;6.72;5.00;;;;;;;14.65;46.98;93418.16;4981590;28;20113;-92
2023/04/17 00:57:22;;;;;;;7.15;5.65;;;;;;;14.61;47.03;93423.09;4972456;28;20133;-91
2023/04/17 00:59:47;;;;;;;10.52;5.80;;;;;;;14.65;47.13;93431.03;4969360;28;20113;-92
2023/04/17 01:02:12;;;;;;;7.05;5.18;;;;;;;14.60;47.08;93421.59;4969121;28;20510;-92
2023/04/17 01:04:38;;;;;;;7.05;5.28;;;;;;;14.60;47.21;93427.03;4969709;28;20046;-92
2023/04/17 01:07:03;;;;;;;6.35;4.63;;;;;;;14.60;47.28;93426.28;4967265;28;20038;-92
2023/04/17 01:09:29;;;;;;;7.10;5.55;;;;;;;14.64;47.02;93427.56;5003979;28;20592;-90
2023/04/17 01:12:13;;;;;;;6.88;5.70;;;;;;;14.65;47.26;93426.34;4969794;28;20039;-92
2023/04/17 01:14:39;;;;;;;6.20;4.97;;;;;;;14.63;47.09;93431.50;4975535;28;20048;-91
2023/04/17 01:17:05;;;;;;;7.07;5.53;;;;;;;14.63;47.08;93433.50;4977086;28;20038;-92
2023/04/17 01:19:30;;;;;;;6.32;5.10;;;;;;;14.66;47.23;93440.69;4953111;28;20050;-91
2023/04/17 01:21:56;;;;;;;7.07;5.28;;;;;;;14.59;47.01;93439.16;4969336;28;20046;-91
2023/04/17 01:24:21;;;;;;;7.88;5.40;;;;;;;14.60;46.94;93434.44;4986077;28;20035;-91
2023/04/17 01:26:47;;;;;;;7.43;4.97;;;;;;;14.56;47.06;93434.69;5005298;28;20053;-92
2023/04/17 01:29:12;;;;;;;7.72;5.60;;;;;;;14.58;47.06;93434.94;4984673;28;20054;-92
2023/04/17 01:31:38;;;;;;;7.40;5.28;;;;;;;14.57;47.09;93438.88;4988268;28;20031;-91
2023/04/17 01:34:05;;;;;;;7.43;5.50;;;;;;;14.56;47.06;93429.22;4985156;28;20403;-91
2023/04/17 01:36:31;;;;;;;6.53;5.07;;;;;;;14.58;47.21;93429.50;4969000;28;20031;-91
2023/04/17 01:38:56;;;;;;;7.63;4.60;;;;;;;14.54;47.09;93420.06;4979886;28;20373;-92
2023/04/17 01:41:22;;;;;;;6.45;4.90;;;;;;;14.55;47.41;93427.00;4981145;28;20077;-91
2023/04/17 01:43:47;;;;;;;7.70;5.68;;;;;;;14.53;47.13;93422.03;5004806;28;20038;-92
2023/04/17 01:46:13;;;;;;;6.63;4.75;;;;;;;14.57;47.32;93427.25;4968387;28;20034;-91
2023/04/17 01:48:38;;;;;;;7.82;5.63;;;;;;;14.57;46.98;93438.13;4976008;28;20038;-91
2023/04/17 01:51:04;;;;;;;8.00;5.38;;;;;;;14.56;47.01;93434.69;4983794;28;20410;-92
2023/04/17 01:53:30;;;;;;;7.28;4.88;;;;;;;14.61;47.52;93425.06;5001036;28;20042;-92
2023/04/17 01:55:55;;;;;;;6.35;4.60;;;;;;;14.58;46.86;93420.59;4984421;28;20043;-92
2023/04/17 01:58:20;;;;;;;8.40;5.57;;;;;;;14.56;47.20;93425.78;4984379;28;20049;-91
2023/04/17 02:00:46;;;;;;;7.88;5.00;;;;;;;14.58;47.27;93426.03;4981572;28;20039;-91
2023/04/17 02:03:12;;;;;;;6.95;5.25;;;;;;;14.59;47.05;93433.72;4968230;28;20037;-92
2023/04/17 02:05:37;;;;;;;7.50;4.82;;;;;;;14.60;47.11;93431.72;4968316;28;20043;-92
2023/04/17 02:08:03;;;;;;;5.80;4.50;;;;;;;14.58;47.28;93440.38;4968895;28;20046;-92
2023/04/17 02:10:29;;;;;;;5.43;4.45;;;;;;;14.65;47.03;93431.03;4968598;28;20384;-91
2023/04/17 02:12:54;;;;;;;5.40;4.65;;;;;;;14.61;47.14;93427.78;4968489;28;20074;-91
2023/04/17 02:15:20;;;;;;;7.72;4.97;;;;;;;14.61;46.70;93431.25;4968141;28;20275;-92
2023/04/17 02:17:45;;;;;;;6.13;4.82;;;;;;;14.57;46.89;93438.13;4968861;28;20035;-92
2023/04/17 02:20:11;;;;;;;6.90;4.90;;;;;;;14.53;46.99;93434.88;4975303;28;20089;-92
2023/04/17 02:22:36;;;;;;;5.60;4.45;;;;;;;14.59;47.22;93441.13;4986692;28;20038;-91
2023/04/17 02:25:02;;;;;;;7.20;4.85;;;;;;;14.61;47.31;93435.94;4975201;28;20159;-91
2023/04/17 02:27:28;;;;;;;6.20;4.40;;;;;;;14.59;46.98;93438.41;4986451;28;20065;-91
2023/04/17 02:29:54;;;;;;;6.43;4.80;;;;;;;14.60;47.04;93440.63;4992677;28;20053;-92
2023/04/17 02:32:19;;;;;;;5.97;4.90;;;;;;;14.57;47.03;93432.69;4984518;28;20050;-91
2023/04/17 02:34:45;;;;;;;5.82;4.68;;;;;;;14.57;47.35;93435.41;4973991;28;20545;-91
2023/04/17 02:37:10;;;;;;;5.05;4.10;;;;;;;14.61;47.13;93435.94;4973199;28;20038;-92
2023/04/17 02:39:36;;;;;;;7.20;4.57;;;;;;;14.51;47.11;93434.63;4973880;28;20057;-92
2023/04/17 02:42:01;;;;;;;6.82;4.95;;;;;;;14.53;46.89;93429.44;4989915;28;20041;-92
2023/04/17 02:44:27;;;;;;;6.55;4.50;;;;;;;14.56;47.00;93431.94;4972549;28;20585;-92
2023/04/17 02:46:55;;;;;;;5.93;4.53;;;;;;;14.55;47.18;93435.16;4990092;28;20069;-92
2023/04/17 02:49:21;;;;;;;7.20;4.97;;;;;;;14.56;47.29;93421.06;4996402;28;20104;-92
2023/04/17 02:51:46;;;;;;;6.63;4.53;;;;;;;14.60;47.34;93440.63;4980809;28;20452;-91
2023/04/17 02:54:12;;;;;;;6.18;4.60;;;;;;;14.55;47.09;93433.19;4990695;28;20493;-92
2023/04/17 02:56:37;;;;;;;5.55;4.45;;;;;;;14.57;47.17;93429.97;4984045;28;20086;-91
2023/04/17 02:59:02;;;;;;;5.65;4.35;;;;;;;14.53;47.03;93432.16;4972060;28;20050;-91
2023/04/17 03:01:28;;;;;;;5.70;4.22;;;;;;;14.55;47.15;93427.75;4990388;28;20038;-91
2023/04/17 03:03:54;;;;;;;6.72;4.38;;;;;;;14.57;47.47;93440.84;4991043;28;20034;-92
2023/04/17 03:06:20;;;;;;;5.50;4.72;;;;;;;14.54;47.07;93430.94;4990420;28;20039;-92
2023/04/17 03:08:45;;;;;;;6.47;4.70;;;;;;;14.49;46.80;93434.41;4991244;28;20045;-92
2023/04/17 03:11:11;;;;;;;5.38;4.18;;;;;;;14.59;47.28;93433.72;4989859;28;20038;-91
2023/04/17 03:13:36;;;;;;;5.20;4.35;;;;;;;14.59;47.20;93435.69;4991001;28;20047;-92
2023/04/17 03:16:03;;;;;;;6.53;4.72;;;;;;;14.58;47.16;93442.34;4978788;28;20046;-91
2023/04/17 03:18:29;;;;;;;5.90;4.57;;;;;;;14.56;47.19;93423.78;4955432;28;20046;-91
2023/04/17 03:20:55;;;;;;;6.25;4.72;;;;;;;14.52;47.04;93428.72;4987812;28;20046;-92
2023/04/17 03:23:20;;;;;;;4.25;3.80;;;;;;;14.60;47.29;93442.63;4990274;28;20510;-92
2023/04/17 03:25:45;;;;;;;6.60;4.30;;;;;;;14.47;47.40;93440.31;4991024;28;20038;-92
2023/04/17 03:28:11;;;;;;;5.72;3.72;;;;;;;14.53;46.98;93441.06;4990304;28;20043;-92
2023/04/17 03:30:36;;;;;;;4.97;4.10;;;;;;;14.61;46.86;93436.69;4980004;28;20103;-92
2023/04/17 03:33:02;;;;;;;5.88;4.28;;;;;;;14.67;47.23;93445.63;4992625;28;20307;-91
2023/04/17 03:35:28;;;;;;;5.53;4.13;;;;;;;14.69;47.15;93445.16;4974119;28;20043;-90
2023/04/17 03:37:55;;;;;;;25.08;15.23;;;;;;;14.81;47.07;93446.69;4970892;28;20051;-91
2023/04/17 03:40:21;;;;;;;5.50;4.13;;;;;;;14.72;46.69;93436.75;5016929;28;20342;-92
2023/04/17 03:42:46;;;;;;;6.63;4.30;;;;;;;14.66;47.15;93444.16;4996140;28;20034;-92
2023/04/17 03:45:12;;;;;;;9.50;6.28;;;;;;;14.71;46.86;93440.72;4970770;28;20043;-91
2023/04/17 03:47:46;;;;;;;18.73;9.27;;;;;;;14.74;46.75;93442.44;4990169;28;20153;-93
2023/04/17 03:50:12;;;;;;;17.55;7.03;;;;;;;14.76;46.83;93444.69;4978052;28;20042;-93
2023/04/17 03:52:37;;;;;;;10.50;6.13;;;;;;;14.68;47.00;93436.25;4970645;28;20307;-91
2023/04/17 03:55:06;;;;;;;14.00;7.82;;;;;;;14.74;47.01;93450.63;4989477;28;20042;-90
2023/04/17 03:57:31;;;;;;;13.93;7.45;;;;;;;14.63;46.83;93447.84;4974429;28;20545;-91
2023/04/17 03:59:57;;;;;;;23.52;12.40;;;;;;;14.64;47.17;93443.88;4945248;28;20054;-89
2023/04/17 04:02:22;;;;;;;27.73;12.60;;;;;;;14.62;46.72;93448.31;4984460;28;20050;-91
2023/04/17 04:04:50;;;;;;;32.67;17.83;;;;;;;14.75;47.29;93449.38;4975507;28;20577;-92
2023/04/17 04:07:15;;;;;;;86.82;33.10;;;;;;;14.80;47.26;93453.38;4954754;28;20051;-92
2023/04/17 04:09:41;;;;;;;395.35;121.38;;;;;;;14.79;47.09;93454.59;4998578;28;20141;-93
2023/04/17 04:12:07;;;;;;;159.85;53.67;;;;;;;14.80;47.48;93458.06;4973492;28;20513;-94
2023/04/17 04:14:33;;;;;;;104.95;38.10;;;;;;;14.89;47.17;93453.19;4958322;28;20170;-94
2023/04/17 04:17:21;;;;;;;86.95;36.28;;;;;;;14.87;46.77;93460.34;4968870;28;20474;-96
2023/04/17 04:20:09;;;;;;;118.57;58.33;;;;;;;14.78;47.06;93450.38;4947650;28;20042;-92
2023/04/17 04:22:35;;;;;;;144.07;69.60;;;;;;;14.84;47.43;93455.88;4984779;28;20116;-90
2023/04/17 04:25:00;;;;;;;137.90;62.33;;;;;;;14.81;47.17;93454.88;4989413;28;20042;-90
2023/04/17 04:27:26;;;;;;;134.27;55.70;;;;;;;14.86;46.85;93454.16;4973540;28;20042;-91
2023/04/17 04:29:57;;;;;;;183.80;77.35;;;;;;;14.76;47.55;93458.28;4968790;28;20046;-90
2023/04/17 04:32:24;;;;;;;196.45;97.93;;;;;;;14.79;47.27;93459.31;4958455;28;20109;-90
2023/04/17 04:34:51;;;;;;;180.90;84.95;;;;;;;14.83;47.44;93454.38;4991557;28;20043;-89
2023/04/17 04:37:16;;;;;;;219.80;102.38;;;;;;;14.80;46.99;93464.25;4956481;28;20038;-92
2023/04/17 04:39:42;;;;;;;255.93;110.60;;;;;;;14.87;47.21;93463.81;4981830;28;20516;-90
2023/04/17 04:42:08;;;;;;;212.77;99.05;;;;;;;14.88;47.18;93459.13;4962857;28;20046;-90
2023/04/17 04:44:36;;;;;;;218.00;98.07;;;;;;;14.83;47.14;93466.00;4992798;28;20042;-90
2023/04/17 04:47:01;;;;;;;234.93;101.20;;;;;;;14.81;46.85;93462.28;4991068;28;20117;-90
2023/04/17 04:49:27;;;;;;;195.48;93.05;;;;;;;14.93;47.27;93464.59;4972251;28;20051;-91
2023/04/17 04:51:52;;;;;;;211.27;96.63;;;;;;;14.92;47.17;93465.09;4955083;28;20051;-90
2023/04/17 04:54:19;;;;;;;226.50;100.53;;;;;;;14.91;47.25;93463.59;4957627;28;20043;-91
2023/04/17 04:56:44;;;;;;;179.23;91.15;;;;;;;14.95;46.92;93464.84;4957236;28;20048;-90
2023/04/17 04:59:10;;;;;;;218.48;98.75;;;;;;;14.91;46.73;93472.50;4956848;28;20081;-91
2023/04/17 05:01:38;;;;;;;237.45;101.60;;;;;;;14.96;46.57;93471.03;4964482;28;20090;-90
2023/04/17 05:04:04;;;;;;;209.57;96.88;;;;;;;14.92;46.77;93475.97;4991813;28;20422;-90
2023/04/17 05:06:30;;;;;;;198.27;93.05;;;;;;;14.93;46.90;93472.03;4973644;28;20141;-91
2023/04/17 05:08:55;;;;;;;178.88;84.80;;;;;;;14.94;47.27;93471.50;4958929;28;20053;-89
2023/04/17 05:11:21;;;;;;;174.30;85.90;;;;;;;15.00;47.50;93471.53;4969655;28;20038;-90
2023/04/17 05:13:47;;;;;;;206.00;96.97;;;;;;;14.94;47.02;93479.66;4955033;28;20038;-90
2023/04/17 05:16:12;;;;;;;175.15;87.22;;;;;;;14.89;46.78;93479.66;4919423;29;20047;-89
2023/04/17 05:18:39;;;;;;;194.40;93.90;;;;;;;14.91;47.05;93477.19;4965559;28;20043;-89
2023/04/17 05:21:06;;;;;;;203.13;94.43;;;;;;;14.97;47.49;93483.41;4960406;28;20123;-92
2023/04/17 05:23:32;;;;;;;171.85;84.57;;;;;;;15.06;47.09;93488.66;4958536;28;20049;-90
2023/04/17 05:25:58;;;;;;;201.60;91.70;;;;;;;15.02;47.02;93485.41;4938781;28;20051;-91
2023/04/17 05:28:26;;;;;;;186.10;91.13;;;;;;;15.03;46.99;93487.66;4957879;28;20121;-91
2023/04/17 05:30:51;;;;;;;240.02;106.10;;;;;;;14.97;47.00;93491.56;4946623;28;20049;-90
2023/04/17 05:33:17;;;;;;;204.73;97.82;;;;;;;14.96;47.11;93498.25;4939123;28;20791;-91
2023/04/17 05:35:44;;;;;;;211.10;104.88;;;;;;;14.97;46.90;93494.28;4957521;28;20107;-93
2023/04/17 05:38:11;;;;;;;208.48;98.32;;;;;;;15.08;46.97;93489.66;4971617;28;20035;-89
2023/04/17 05:40:37;;;;;;;187.77;91.80;;;;;;;15.13;46.95;93493.66;4950361;28;20122;-90
2023/04/17 05:43:10;;;;;;;207.05;98.95;;;;;;;15.05;46.80;93493.34;4940253;28;20109;-94
2023/04/17 05:45:35;;;;;;;198.77;90.72;;;;;;;14.98;47.00;93493.06;4926644;28;20043;-93
2023/04/17 05:48:01;;;;;;;171.20;80.03;;;;;;;15.05;46.53;93503.50;4963354;28;20945;-91
2023/04/17 05:50:38;;;;;;;152.63;72.18;;;;;;;15.05;46.72;93498.06;4954528;28;20038;-90
2023/04/17 05:53:04;;;;;;;146.57;72.28;;;;;;;14.96;46.35;93503.69;4951333;28;20078;-91
2023/04/17 05:55:30;;;;;;;150.68;67.72;;;;;;;15.06;47.08;93489.41;4948854;28;20129;-90
2023/04/17 05:57:56;;;;;;;143.05;72.97;;;;;;;15.04;46.99;93508.19;4952617;28;20125;-93
2023/04/17 06:00:21;;;;;;;158.63;70.20;;;;;;;15.07;46.70;93503.75;4937243;28;20118;-92
2023/04/17 06:02:48;;;;;;;192.73;76.72;;;;;;;15.06;47.18;93505.00;4942403;28;20523;-90
2023/04/17 06:05:15;;;;;;;288.73;189.98;;;;;;;15.14;46.94;93503.31;4951545;28;20047;-87
2023/04/17 06:07:44;;;;;;;155.80;75.68;;;;;;;15.17;47.33;93504.31;4968609;28;20057;-88
2023/04/17 06:10:09;;;;;;;128.38;65.57;;;;;;;15.13;47.14;93510.00;4954662;28;20405;-87
2023/04/17 06:12:36;;;;;;;123.75;63.42;;;;;;;15.14;47.25;93513.47;4974909;28;20043;-87
2023/04/17 06:15:04;;;;;;;119.60;60.00;;;;;;;15.16;47.28;93503.56;4970458;28;20048;-93
2023/04/17 06:17:30;;;;;;;129.85;65.03;;;;;;;15.16;47.58;93517.16;4970231;28;20058;-87
2023/04/17 06:19:55;;;;;;;116.32;59.42;;;;;;;15.20;47.29;93519.66;4960340;28;20043;-90
2023/04/17 06:22:21;;;;;;;123.95;64.68;;;;;;;15.06;47.45;93526.78;4949342;28;20468;-88
2023/04/17 06:24:47;;;;;;;127.78;62.03;;;;;;;15.05;47.16;93519.84;4957671;28;20043;-88
2023/04/17 06:27:12;;;;;;;114.30;53.42;;;;;;;15.01;47.35;93522.03;4951248;28;20042;-88
2023/04/17 06:29:38;;;;;;;115.03;47.08;;;;;;;14.96;47.38;93526.22;4961920;28;20062;-88
2023/04/17 06:32:04;;;;;;;127.05;48.70;;;;;;;15.06;48.09;93532.22;4947758;28;20055;-89
2023/04/17 06:34:30;;;;;;;123.55;53.25;;;;;;;15.02;47.63;93535.16;4971955;28;20043;-90
2023/04/17 06:36:55;;;;;;;150.80;67.03;;;;;;;15.07;47.91;93531.00;4954622;28;20066;-88
2023/04/17 06:39:22;;;;;;;146.30;66.85;;;;;;;15.06;47.77;93540.38;4951295;28;20043;-89
2023/04/17 06:41:49;;;;;;;163.05;69.18;;;;;;;14.98;47.51;93545.53;4988285;28;20134;-89
2023/04/17 06:44:14;;;;;;;152.93;69.22;;;;;;;15.00;47.44;93542.31;4950546;28;20050;-89
2023/04/17 06:46:40;;;;;;;144.73;69.53;;;;;;;15.08;47.76;93532.47;4961836;28;20493;-91
2023/04/17 06:49:05;;;;;;;159.27;78.32;;;;;;;15.11;47.79;93545.13;4954194;28;20509;-92
2023/04/17 06:51:31;;;;;;;179.45;93.22;;;;;;;15.13;47.97;93550.09;4952029;28;20482;-89
2023/04/17 06:53:56;;;;;;;206.73;106.90;;;;;;;15.10;47.92;93546.34;4940575;28;20579;-91
2023/04/17 06:56:23;;;;;;;235.25;108.97;;;;;;;15.11;47.91;93547.09;4970421;28;20046;-92
2023/04/17 06:58:48;;;;;;;267.80;137.27;;;;;;;15.05;47.48;93547.81;4955609;28;20102;-91
2023/04/17 07:01:16;;;;;;;273.30;146.45;;;;;;;15.10;47.33;93549.09;4947694;28;20031;-89
2023/04/17 07:03:42;;;;;;;247.43;134.13;;;;;;;15.14;48.01;93548.88;4933939;29;20073;-91
2023/04/17 07:06:08;;;;;;;254.50;132.88;;;;;;;15.19;47.78;93554.31;4968426;28;20034;-90
2023/04/17 07:08:33;;;;;;;244.05;135.10;;;;;;;15.18;48.05;93549.34;4975572;28;20058;-91
2023/04/17 07:11:00;;;;;;;262.60;135.65;;;;;;;15.08;47.38;93549.56;4944988;28;20058;-89
2023/04/17 07:13:29;;;;;;;267.90;141.50;;;;;;;15.15;47.86;93545.66;4954286;28;20047;-87
2023/04/17 07:15:55;;;;;;;247.07;128.23;;;;;;;15.21;47.84;93551.13;4974480;28;20070;-92
2023/04/17 07:18:21;;;;;;;232.90;127.90;;;;;;;15.20;48.11;93549.63;4977762;28;20042;-94
2023/04/17 07:20:47;;;;;;;261.77;133.45;;;;;;;15.12;47.69;93551.31;4972700;28;20039;-88
2023/04/17 07:23:15;;;;;;;280.48;142.75;;;;;;;15.15;48.03;93561.25;4961690;28;20084;-93
2023/04/17 07:25:41;;;;;;;254.35;138.50;;;;;;;15.15;47.73;93558.53;4994852;28;20039;-90
2023/04/17 07:28:06;;;;;;;277.95;149.82;;;;;;;15.22;47.21;93563.50;4963338;28;20049;-89
2023/04/17 07:30:33;;;;;;;275.75;146.65;;;;;;;15.22;47.76;93563.50;4997571;28;20046;-87
2023/04/17 07:32:59;;;;;;;269.27;142.77;;;;;;;15.17;48.11;93567.66;4972047;28;20034;-92
2023/04/17 07:35:25;;;;;;;288.10;148.20;;;;;;;15.27;47.80;93563.53;4967780;28;20069;-92
2023/04/17 07:37:50;;;;;;;317.95;158.32;;;;;;;15.30;47.38;93570.00;4941199;28;20050;-92
2023/04/17 07:40:16;;;;;;;313.00;162.55;;;;;;;15.29;48.10;93563.81;4959902;28;20102;-90
2023/04/17 07:42:42;;;;;;;301.13;155.20;;;;;;;15.29;48.07;93566.53;4962302;28;20122;-90
2023/04/17 07:45:08;;;;;;;294.88;157.15;;;;;;;15.17;47.79;93573.13;4952285;28;20047;-91
2023/04/17 07:47:34;;;;;;;300.70;156.07;;;;;;;15.28;48.25;93567.00;4966780;28;20047;-91
2023/04/17 07:50:00;;;;;;;291.23;149.98;;;;;;;15.25;47.59;93568.72;4960608;28;20045;-89
2023/04/17 07:52:26;;;;;;;282.27;149.27;;;;;;;15.30;47.63;93578.91;4962145;28;20095;-93
2023/04/17 07:54:52;;;;;;;280.27;139.32;;;;;;;15.20;47.59;93574.88;4961711;28;20062;-94
2023/04/17 07:57:18;;;;;;;270.85;142.50;;;;;;;15.23;47.96;93584.06;4989684;28;20055;-91
2023/04/17 07:59:43;;;;;;;272.95;146.30;;;;;;;15.28;48.08;93573.19;4911759;28;1981039;-93
2023/04/17 08:02:11;;;;;;;270.27;139.43;;;;;;;15.33;47.95;93582.66;4959439;28;20054;-94
2023/04/17 08:04:38;;;;;;;262.35;138.13;;;;;;;15.26;48.16;93585.81;4966065;28;20532;-91
2023/04/17 08:07:09;;;;;;;269.63;139.25;;;;;;;15.25;48.01;93581.59;4974960;28;20675;-92
2023/04/17 08:09:36;;;;;;;246.35;127.53;;;;;;;15.28;48.11;93580.63;4969686;28;20049;-92
2023/04/17 08:12:02;;;;;;;227.10;118.25;;;;;;;15.31;48.26;93579.66;4948395;28;20046;-95
2023/04/17 08:14:28;;;;;;;254.13;132.43;;;;;;;15.33;47.82;93590.81;4960276;28;20239;-95
2023/04/17 08:16:53;;;;;;;204.30;108.03;;;;;;;15.29;48.29;93587.56;4959045;28;20414;-91
2023/04/17 08:19:20;;;;;;;182.68;84.57;;;;;;;15.17;48.15;93586.00;4965821;28;20062;-94
2023/04/17 08:21:49;;;;;;;131.90;69.50;;;;;;;15.08;47.99;93593.13;4948668;28;20125;-94
2023/04/17 08:24:16;;;;;;;125.45;61.97;;;;;;;15.12;48.53;93595.63;4930381;28;20134;-93
2023/04/17 08:26:42;;;;;;;118.65;62.90;;;;;;;15.09;48.63;93597.34;4937931;28;20056;-93
2023/04/17 08:29:19;;;;;;;141.23;66.07;;;;;;;15.12;48.32;93589.44;4955342;28;20607;-92
2023/04/17 08:31:45;;;;;;;130.43;70.28;;;;;;;15.10;48.64;93587.19;4950423;28;20107;-93
2023/04/17 08:34:11;;;;;;;142.23;75.95;;;;;;;15.20;48.50;93587.75;4947904;28;20045;-93
2023/04/17 08:36:37;;;;;;;164.50;79.97;;;;;;;15.23;48.46;93581.31;4944681;28;20042;-94
2023/04/17 08:39:03;;;;;;;167.65;89.40;;;;;;;15.19;48.65;93580.81;4949698;28;20042;-92
2023/04/17 08:41:56;;;;;;;182.13;95.65;;;;;;;15.22;48.51;93590.72;4951603;28;20089;-92
2023/04/17 08:44:22;;;;;;;267.52;140.23;;;;;;;15.14;47.90;93590.44;4958988;28;20046;-92
2023/04/17 08:46:48;;;;;;;201.55;103.80;;;;;;;15.11;48.61;93596.84;4947204;28;20617;-91
2023/04/17 08:49:14;;;;;;;168.60;87.38;;;;;;;15.06;48.83;93590.13;4942606;28;20700;-93
2023/04/17 08:51:40;;;;;;;134.00;67.65;;;;;;;15.02;48.69;93597.78;4947610;28;20106;-92
2023/04/17 08:54:06;;;;;;;134.75;64.10;;;;;;;15.16;49.44;93598.09;4943568;28;20426;-93
2023/04/17 08:56:32;;;;;;;121.35;58.88;;;;;;;15.08;49.38;93595.84;4953023;28;20057;-90
2023/04/17 08:58:57;;;;;;;131.02;56.55;;;;;;;15.03;50.03;93593.06;4960792;28;20048;-89
2023/04/17 09:01:23;;;;;;;116.18;50.10;;;;;;;14.97;49.28;93593.03;4936696;28;20084;-89
2023/04/17 09:03:50;;;;;;;105.63;48.38;;;;;;;14.99;49.75;93598.00;4974696;28;20089;-94
2023/04/17 09:06:16;;;;;;;85.65;37.65;;;;;;;14.89;49.83;93600.16;4958979;28;20027;-91
2023/04/17 09:08:57;;;;;;;76.20;38.25;;;;;;;14.93;49.65;93597.97;4937427;28;20035;-90
2023/04/17 09:11:22;;;;;;;97.60;44.90;;;;;;;14.97;49.86;93589.56;4985464;28;20126;-91
2023/04/17 09:13:48;;;;;;;117.45;51.00;;;;;;;14.99;49.67;93589.81;4986661;28;20054;-92
2023/04/17 09:16:18;;;;;;;73.25;36.08;;;;;;;15.12;49.89;93592.16;4967242;28;20043;-93
2023/04/17 09:18:58;;;;;;;86.50;35.70;;;;;;;15.05;49.75;93596.06;4966206;28;20787;-94
2023/04/17 09:21:26;;;;;;;91.47;40.10;;;;;;;14.97;50.04;93600.44;4954379;28;20047;-93
2023/04/17 09:23:54;;;;;;;89.93;44.22;;;;;;;14.96;49.96;93599.69;4960048;28;20087;-93
2023/04/17 09:26:22;;;;;;;95.95;46.80;;;;;;;15.13;49.49;93586.22;4953796;28;20058;-95
2023/04/17 09:29:10;;;;;;;102.05;54.72;;;;;;;15.08;49.24;93587.69;4953249;28;20043;-92
2023/04/17 09:31:36;;;;;;;145.50;68.60;;;;;;;15.09;49.40;93591.16;4986610;28;20047;-95
2023/04/17 09:34:06;;;;;;;134.90;66.65;;;;;;;15.19;49.58;93580.81;4957905;28;20387;-95
2023/04/17 09:36:33;;;;;;;142.60;72.60;;;;;;;15.15;49.50;93585.75;4973892;28;20062;-92
2023/04/17 09:39:01;;;;;;;177.77;88.90;;;;;;;15.21;49.27;93586.50;4965364;28;20537;-92
2023/04/17 09:41:31;;;;;;;195.32;96.60;;;;;;;15.14;49.06;93587.72;4959214;28;20043;-92
2023/04/17 09:44:00;;;;;;;184.75;94.15;;;;;;;15.20;50.05;93590.47;4954600;28;20042;-92
2023/04/17 09:46:32;;;;;;;183.52;93.05;;;;;;;15.16;49.33;93587.22;4956814;28;20480;-94
2023/04/17 09:49:06;;;;;;;205.00;108.05;;;;;;;15.18;49.23;93588.22;4989456;28;20094;-89
2023/04/17 09:51:31;;;;;;;189.23;102.20;;;;;;;15.29;49.33;93588.31;4963134;28;20147;-91
2023/04/17 09:53:57;;;;;;;218.75;107.47;;;;;;;15.27;49.76;93581.84;4970396;28;20077;-91
2023/04/17 09:56:26;;;;;;;190.18;103.43;;;;;;;15.23;49.31;93586.78;4957852;28;20061;-93
2023/04/17 09:58:52;;;;;;;200.48;108.28;;;;;;;15.24;49.61;93586.28;4973169;28;20417;-90
2023/04/17 10:01:18;;;;;;;246.85;124.70;;;;;;;15.21;48.89;93586.50;4977725;28;20129;-93
2023/04/17 10:03:44;;;;;;;231.80;121.32;;;;;;;15.23;48.88;93584.06;4987045;28;20043;-95
2023/04/17 10:06:12;;;;;;;212.02;108.32;;;;;;;15.25;49.38;93587.03;4991953;28;20034;-94
2023/04/17 10:08:38;;;;;;;198.32;108.85;;;;;;;15.34;49.01;93590.31;4991406;28;20603;-93
2023/04/17 10:11:04;;;;;;;192.73;103.40;;;;;;;15.33;49.38;93582.66;4945984;28;20039;-94
2023/04/17 10:13:30;;;;;;;185.50;101.47;;;;;;;15.35;49.31;93591.06;4960340;28;20557;-95
2023/04/17 10:15:56;;;;;;;188.00;102.25;;;;;;;15.26;48.99;93577.63;4950225;28;20035;-93
2023/04/17 10:18:23;;;;;;;175.18;95.18;;;;;;;15.26;49.30;93572.19;4955578;28;20381;-93
2023/04/17 10:20:51;;;;;;;166.02;89.25;;;;;;;15.27;48.76;93574.44;4956038;28;20049;-93
2023/04/17 10:23:30;;;;;;;165.57;90.47;;;;;;;15.31;49.34;93572.22;4952043;28;20133;-91
2023/04/17 10:26:23;;;;;;;173.30;91.95;;;;;;;15.30;48.99;93572.72;4961681;28;20102;-93
2023/04/17 10:28:49;;;;;;;161.73;90.25;;;;;;;15.32;49.04;93570.25;4970261;28;20085;-89
2023/04/17 10:31:15;;;;;;;166.65;89.32;;;;;;;15.38;49.21;93565.56;4968771;28;20090;-92
2023/04/17 10:33:51;;;;;;;148.68;84.90;;;;;;;15.33;48.94;93572.50;4960479;28;20035;-89
2023/04/17 10:36:38;;;;;;;143.18;82.07;;;;;;;15.37;48.89;93566.81;4933236;28;20050;-87
2023/04/17 10:39:14;;;;;;;133.25;77.70;;;;;;;15.34;48.64;93563.09;4958117;28;20054;-88
2023/04/17 10:42:01;;;;;;;136.70;74.43;;;;;;;15.43;48.47;93560.16;4954721;28;20626;-88
2023/04/17 10:44:26;;;;;;;130.32;73.75;;;;;;;15.47;48.85;93559.19;4949039;28;20050;-89
2023/04/17 10:46:52;;;;;;;130.48;72.00;;;;;;;15.47;48.84;93548.28;4935747;28;20113;-89
2023/04/17 10:49:20;;;;;;;122.03;71.55;;;;;;;15.47;48.90;93554.47;4951647;28;20038;-88
2023/04/17 10:51:45;;;;;;;129.80;77.78;;;;;;;15.41;48.66;93551.72;4966604;28;20055;-92
2023/04/17 10:54:14;;;;;;;116.30;70.82;;;;;;;15.43;49.32;93551.97;4945239;28;20050;-87
2023/04/17 10:56:45;;;;;;;117.57;68.45;;;;;;;15.49;49.26;93551.28;4958999;28;20042;-91
2023/04/17 10:59:11;;;;;;;129.70;71.88;;;;;;;15.46;48.88;93554.97;4974222;28;20043;-89
2023/04/17 11:01:37;;;;;;;139.82;76.20;;;;;;;15.47;49.11;93554.47;4973106;28;20134;-92
2023/04/17 11:04:03;;;;;;;148.77;77.45;;;;;;;15.55;48.90;93552.06;4974533;28;20186;-95
2023/04/17 11:06:32;;;;;;;154.65;86.80;;;;;;;15.53;48.48;93554.50;4961482;28;20038;-89
2023/04/17 11:08:58;;;;;;;169.85;93.90;;;;;;;15.55;48.56;93549.31;4992003;28;20512;-93
2023/04/17 11:11:24;;;;;;;192.25;101.03;;;;;;;15.61;48.77;93552.81;4956783;28;20047;-89
2023/04/17 11:13:50;;;;;;;193.45;103.88;;;;;;;15.48;48.61;93549.78;4984501;28;20038;-90
2023/04/17 11:16:15;;;;;;;219.55;109.03;;;;;;;15.49;48.22;93548.53;4964277;28;20615;-88